createdAt,value
2019-04-28T00:00:11.440Z,5.13
2019-04-28T00:02:40.858Z,5.00
2019-04-28T00:05:11.386Z,6.37
2019-04-28T00:07:41.120Z,9.80
2019-04-28T00:10:11.023Z,5.50
2019-04-28T00:12:41.234Z,9.33
2019-04-28T00:15:10.943Z,5.70
2019-04-28T00:17:41.890Z,3.90
2019-04-28T00:20:14.424Z,7.73
2019-04-28T00:22:51.529Z,6.63
2019-04-28T00:25:24.305Z,2.93
2019-04-28T00:27:53.526Z,6.57
2019-04-28T00:30:22.423Z,6.13
2019-04-28T00:32:51.849Z,3.07
2019-04-28T00:35:21.523Z,3.77
2019-04-28T00:37:51.745Z,5.53
2019-04-28T00:40:21.772Z,4.40
2019-04-28T00:42:51.279Z,5.80
2019-04-28T00:45:21.507Z,2.70
2019-04-28T00:47:51.084Z,7.33
2019-04-28T00:50:21.697Z,4.60
2019-04-28T00:52:51.849Z,3.20
2019-04-28T00:55:21.083Z,3.47
2019-04-28T01:00:33.396Z,6.00
2019-04-28T01:03:02.312Z,4.20
2019-04-28T01:05:31.297Z,3.47
2019-04-28T01:08:01.141Z,3.13
2019-04-28T01:10:31.422Z,3.37
2019-04-28T01:13:02.085Z,4.93
2019-04-28T01:15:41.729Z,2.50
2019-04-28T01:18:25.594Z,7.93
2019-04-28T01:20:54.591Z,4.53
2019-04-28T01:23:23.493Z,5.43
2019-04-28T01:25:52.418Z,5.03
2019-04-28T01:28:21.367Z,2.70
2019-04-28T01:31:09.586Z,5.07
2019-04-28T01:34:03.518Z,3.33
2019-04-28T01:36:33.771Z,3.33
2019-04-28T01:39:03.448Z,2.53
2019-04-28T01:41:32.274Z,5.03
2019-04-28T01:44:01.145Z,4.20
2019-04-28T01:46:30.094Z,4.33
2019-04-28T01:48:59.918Z,2.70
2019-04-28T01:51:30.504Z,4.97
2019-04-28T01:54:00.201Z,3.63
2019-04-28T01:56:30.398Z,10.93
2019-04-28T01:59:00.270Z,5.23
2019-04-28T02:01:30.163Z,3.17
2019-04-28T02:04:00.248Z,4.60
2019-04-28T02:06:30.009Z,3.30
2019-04-28T02:09:00.907Z,3.57
2019-04-28T02:11:29.728Z,7.37
2019-04-28T02:13:59.731Z,2.20
2019-04-28T02:16:29.628Z,3.80
2019-04-28T02:18:59.736Z,2.97
2019-04-28T02:21:53.646Z,2.90
2019-04-28T02:24:30.547Z,7.60
2019-04-28T02:27:00.891Z,3.90
2019-04-28T02:29:31.271Z,3.17
2019-04-28T02:32:02.047Z,2.07
2019-04-28T02:34:31.435Z,3.63
2019-04-28T02:37:01.607Z,4.70
2019-04-28T02:39:31.676Z,8.83
2019-04-28T02:42:01.575Z,4.27
2019-04-28T02:44:34.765Z,3.87
2019-04-28T02:47:01.550Z,2.70
2019-04-28T02:49:35.867Z,4.57
2019-04-28T02:52:14.467Z,3.00
2019-04-28T02:54:43.454Z,5.13
2019-04-28T02:57:12.430Z,3.57
2019-04-28T02:59:44.608Z,6.73
2019-04-28T03:02:11.985Z,3.03
2019-04-28T03:04:41.221Z,3.90
2019-04-28T03:07:11.499Z,3.53
2019-04-28T03:09:40.918Z,3.03
2019-04-28T03:12:11.302Z,2.47
2019-04-28T03:14:43.827Z,4.20
2019-04-28T03:17:11.205Z,5.53
2019-04-28T03:19:41.612Z,3.10
2019-04-28T03:22:11.573Z,2.63
2019-04-28T03:24:41.476Z,3.57
2019-04-28T03:27:44.758Z,3.23
2019-04-28T03:30:33.728Z,2.07
2019-04-28T03:33:11.113Z,1.90
2019-04-28T03:35:33.979Z,7.10
2019-04-28T03:38:02.930Z,4.80
2019-04-28T03:40:33.799Z,6.53
2019-04-28T03:43:03.368Z,4.20
2019-04-28T03:45:37.751Z,3.20
2019-04-28T03:48:06.599Z,3.60
2019-04-28T03:50:35.521Z,3.20
2019-04-28T03:53:04.337Z,5.40
2019-04-28T03:55:34.935Z,9.17
2019-04-28T03:58:03.886Z,5.70
2019-04-28T04:00:32.783Z,2.70
2019-04-28T04:03:01.880Z,4.90
2019-04-28T04:05:31.004Z,5.10
2019-04-28T04:08:00.991Z,5.57
2019-04-28T04:10:51.055Z,3.30
2019-04-28T04:13:32.711Z,3.63
2019-04-28T04:16:11.071Z,4.60
2019-04-28T04:18:42.850Z,8.80
2019-04-28T04:21:12.326Z,2.93
2019-04-28T04:23:41.443Z,4.60
2019-04-28T04:26:11.692Z,4.77
2019-04-28T04:28:41.715Z,5.73
2019-04-28T04:31:10.826Z,3.57
2019-04-28T04:33:41.083Z,4.17
2019-04-28T04:36:11.618Z,7.80
2019-04-28T04:38:46.036Z,4.13
2019-04-28T04:41:11.603Z,6.60
2019-04-28T04:43:41.569Z,4.23
2019-04-28T04:46:22.020Z,3.93
2019-04-28T04:48:50.852Z,5.80
2019-04-28T04:51:21.301Z,5.43
2019-04-28T04:53:51.365Z,7.87
2019-04-28T04:56:21.330Z,5.50
2019-04-28T04:58:50.839Z,4.20
2019-04-28T05:01:27.541Z,5.43
2019-04-28T05:03:59.668Z,4.77
2019-04-28T05:06:35.144Z,5.63
2019-04-28T05:09:10.174Z,9.53
2019-04-28T05:11:40.098Z,8.03
2019-04-28T05:14:11.609Z,8.90
2019-04-28T05:16:40.295Z,6.17
2019-04-28T05:19:10.059Z,6.00
2019-04-28T05:21:40.190Z,5.20
2019-04-28T05:24:30.383Z,9.50
2019-04-28T05:26:59.703Z,7.63
2019-04-28T05:29:30.429Z,7.23
2019-04-28T05:32:03.203Z,4.80
2019-04-28T05:34:29.855Z,7.23
2019-04-28T05:37:00.555Z,8.13
2019-04-28T05:39:29.844Z,5.27
2019-04-28T05:42:00.658Z,5.10
2019-04-28T05:44:29.937Z,5.00
2019-04-28T05:46:59.970Z,6.60
2019-04-28T05:49:42.369Z,8.47
2019-04-28T05:52:29.913Z,6.17
2019-04-28T05:55:05.367Z,7.90
2019-04-28T05:57:41.906Z,3.90
2019-04-28T06:00:19.775Z,5.77
2019-04-28T06:02:56.411Z,3.27
2019-04-28T06:05:20.389Z,4.77
2019-04-28T06:07:59.552Z,4.73
2019-04-28T06:10:29.906Z,9.30
2019-04-28T06:12:59.712Z,4.40
2019-04-28T06:15:29.490Z,5.50
2019-04-28T06:18:00.132Z,5.90
2019-04-28T06:20:30.343Z,4.70
2019-04-28T06:22:59.267Z,7.93
2019-04-28T06:25:28.146Z,4.97
2019-04-28T06:27:57.122Z,6.57
2019-04-28T06:30:26.235Z,4.83
2019-04-28T06:33:07.156Z,4.77
2019-04-28T06:35:25.793Z,11.00
2019-04-28T06:37:54.751Z,6.30
2019-04-28T06:40:23.731Z,7.50
2019-04-28T06:42:52.624Z,6.03
2019-04-28T06:45:21.673Z,6.23
2019-04-28T06:47:50.663Z,6.57
2019-04-28T06:50:19.734Z,8.93
2019-04-28T06:52:48.683Z,8.70
2019-04-28T06:55:36.897Z,10.57
2019-04-28T06:58:05.964Z,6.80
2019-04-28T07:00:34.990Z,10.90
2019-04-28T07:03:03.949Z,5.20
2019-04-28T07:05:32.807Z,6.20
2019-04-28T07:08:01.658Z,3.10
2019-04-28T07:10:30.610Z,8.43
2019-04-28T07:13:05.537Z,4.70
2019-04-28T07:15:33.899Z,5.00
2019-04-28T07:18:06.963Z,5.37
2019-04-28T07:20:45.130Z,5.57
2019-04-28T07:23:14.029Z,10.20
2019-04-28T07:25:42.996Z,2.50
2019-04-28T07:28:12.107Z,6.20
2019-04-28T07:30:41.778Z,2.23
2019-04-28T07:33:10.858Z,3.73
2019-04-28T07:35:39.857Z,4.77
2019-04-28T07:38:08.770Z,4.40
2019-04-28T07:40:37.790Z,5.50
2019-04-28T07:43:07.144Z,3.97
2019-04-28T07:45:36.693Z,4.67
2019-04-28T07:48:05.907Z,3.30
2019-04-28T07:50:34.919Z,4.53
2019-04-28T07:53:12.909Z,2.33
2019-04-28T07:55:41.842Z,6.17
2019-04-28T07:58:10.783Z,5.77
2019-04-28T08:00:39.639Z,4.50
2019-04-28T08:03:08.618Z,3.57
2019-04-28T08:05:37.639Z,4.17
2019-04-28T08:08:06.479Z,6.27
2019-04-28T08:10:35.389Z,3.63
2019-04-28T08:13:04.318Z,2.80
2019-04-28T08:15:33.221Z,2.13
2019-04-28T08:18:02.250Z,2.53
2019-04-28T08:20:31.227Z,2.90
2019-04-28T08:23:00.197Z,2.73
2019-04-28T08:25:29.414Z,2.53
2019-04-28T08:27:58.549Z,2.80
2019-04-28T08:30:27.460Z,2.97
2019-04-28T08:33:04.205Z,2.90
2019-04-28T08:35:33.125Z,3.23
2019-04-28T08:38:02.094Z,2.83
2019-04-28T08:40:31.257Z,3.57
2019-04-28T08:43:00.461Z,3.33
2019-04-28T08:45:29.343Z,3.10
2019-04-28T08:47:58.357Z,3.77
2019-04-28T08:50:27.404Z,3.20
2019-04-28T08:52:56.308Z,4.10
2019-04-28T08:55:25.170Z,2.27
2019-04-28T08:57:54.005Z,2.90
2019-04-28T09:00:23.458Z,5.30
2019-04-28T09:02:52.370Z,4.33
2019-04-28T09:05:21.341Z,3.40
2019-04-28T09:07:50.216Z,4.20
2019-04-28T09:10:19.058Z,2.90
2019-04-28T09:12:48.079Z,2.60
2019-04-28T09:15:17.183Z,2.70
2019-04-28T09:17:46.187Z,4.00
2019-04-28T09:20:15.183Z,2.67
2019-04-28T09:22:44.171Z,2.80
2019-04-28T09:25:13.371Z,3.50
2019-04-28T09:27:42.353Z,5.03
2019-04-28T09:30:11.666Z,6.13
2019-04-28T09:32:40.718Z,4.50
2019-04-28T09:35:10.034Z,4.43
2019-04-28T09:37:38.918Z,3.63
2019-04-28T09:40:12.118Z,3.67
2019-04-28T09:42:58.909Z,3.80
2019-04-28T09:45:31.217Z,3.87
2019-04-28T09:48:00.149Z,3.90
2019-04-28T09:50:29.109Z,4.33
2019-04-28T09:52:58.057Z,4.63
2019-04-28T09:55:27.003Z,5.53
2019-04-28T09:57:56.185Z,4.17
2019-04-28T10:00:25.190Z,4.57
2019-04-28T10:02:54.278Z,4.13
2019-04-28T10:05:23.340Z,3.30
2019-04-28T10:07:52.358Z,3.53
2019-04-28T10:10:21.560Z,4.13
2019-04-28T10:12:50.400Z,2.63
2019-04-28T10:15:19.378Z,2.20
2019-04-28T10:17:48.249Z,3.30
2019-04-28T10:20:17.705Z,2.90
2019-04-28T10:22:46.759Z,4.43
2019-04-28T10:25:16.421Z,3.50
2019-04-28T10:27:45.330Z,2.93
2019-04-28T10:30:14.556Z,5.80
2019-04-28T10:32:43.846Z,3.63
2019-04-28T10:35:13.173Z,4.00
2019-04-28T10:37:42.172Z,3.27
2019-04-28T10:40:22.760Z,2.97
2019-04-28T10:42:51.801Z,4.67
2019-04-28T10:45:23.436Z,4.63
2019-04-28T10:47:52.651Z,5.10
2019-04-28T10:50:21.606Z,3.83
2019-04-28T10:52:50.446Z,2.70
2019-04-28T10:55:19.340Z,4.70
2019-04-28T10:57:48.285Z,3.90
2019-04-28T11:00:19.206Z,3.13
2019-04-28T11:02:48.187Z,3.63
2019-04-28T11:05:26.101Z,2.83
2019-04-28T11:07:55.589Z,2.40
2019-04-28T11:10:24.576Z,2.80
2019-04-28T11:12:53.483Z,2.63
2019-04-28T11:15:40.774Z,2.10
2019-04-28T11:18:11.642Z,2.10
2019-04-28T11:20:40.530Z,2.00
2019-04-28T11:23:09.682Z,2.23
2019-04-28T11:25:38.606Z,2.43
2019-04-28T11:28:07.733Z,2.60
2019-04-28T11:30:36.670Z,3.53
2019-04-28T11:33:18.243Z,3.10
2019-04-28T11:35:47.326Z,2.50
2019-04-28T11:38:16.518Z,1.90
2019-04-28T11:40:45.520Z,2.10
2019-04-28T11:43:14.402Z,2.23
2019-04-28T11:45:43.311Z,2.23
2019-04-28T11:48:12.292Z,5.13
2019-04-28T11:50:41.241Z,2.37
2019-04-28T11:53:10.188Z,4.50
2019-04-28T11:55:39.235Z,2.30
2019-04-28T11:58:08.387Z,3.50
2019-04-28T12:00:37.550Z,2.40
2019-04-28T12:03:07.115Z,7.30
2019-04-28T12:05:54.453Z,2.47
2019-04-28T12:08:23.481Z,3.23
2019-04-28T12:11:00.649Z,3.00
2019-04-28T12:13:45.766Z,2.63
2019-04-28T12:16:41.504Z,2.20
2019-04-28T12:19:31.147Z,2.40
2019-04-28T12:21:59.995Z,4.50
2019-04-28T12:24:28.941Z,2.50
2019-04-28T12:26:58.002Z,2.93
2019-04-28T12:29:27.061Z,2.80
2019-04-28T12:31:55.975Z,2.40
2019-04-28T12:34:24.874Z,2.93
2019-04-28T12:36:53.824Z,2.53
2019-04-28T12:39:22.638Z,3.10
2019-04-28T12:41:51.555Z,2.90
2019-04-28T12:44:20.614Z,3.90
2019-04-28T12:46:49.456Z,4.10
2019-04-28T12:49:26.686Z,3.50
2019-04-28T12:51:55.737Z,6.47
2019-04-28T12:54:27.025Z,7.37
2019-04-28T12:56:56.039Z,2.83
2019-04-28T12:59:30.293Z,2.93
2019-04-28T13:02:07.779Z,4.37
2019-04-28T13:04:40.539Z,2.43
2019-04-28T13:07:09.606Z,4.73
2019-04-28T13:09:38.599Z,2.93
2019-04-28T13:12:07.577Z,2.87
2019-04-28T13:14:36.582Z,4.20
2019-04-28T13:17:05.571Z,3.40
2019-04-28T13:19:34.583Z,2.97
2019-04-28T13:22:05.595Z,3.93
2019-04-28T13:24:34.967Z,3.60
2019-04-28T13:27:04.068Z,6.87
2019-04-28T13:29:33.118Z,3.77
2019-04-28T13:32:02.157Z,3.57
2019-04-28T13:34:32.805Z,4.90
2019-04-28T13:37:01.915Z,4.87
2019-04-28T13:39:50.137Z,3.20
2019-04-28T13:42:19.009Z,2.77
2019-04-28T13:44:55.722Z,2.87
2019-04-28T13:47:24.694Z,3.70
2019-04-28T13:50:01.735Z,3.17
2019-04-28T13:52:30.673Z,3.27
2019-04-28T13:55:10.630Z,4.20
2019-04-28T13:57:42.301Z,2.60
2019-04-28T14:00:12.622Z,3.57
2019-04-28T14:03:07.212Z,2.80
2019-04-28T14:05:48.966Z,6.07
2019-04-28T14:08:17.838Z,4.90
2019-04-28T14:10:46.825Z,4.90
2019-04-28T14:13:15.814Z,3.93
2019-04-28T14:15:44.810Z,6.73
2019-04-28T14:18:13.762Z,4.80
2019-04-28T14:20:42.726Z,4.97
2019-04-28T14:23:11.654Z,7.97
2019-04-28T14:25:40.618Z,5.53
2019-04-28T14:28:09.550Z,6.70
2019-04-28T14:30:38.550Z,6.33
2019-04-28T14:33:07.617Z,8.80
2019-04-28T14:35:36.685Z,4.00
2019-04-28T14:38:05.650Z,4.60
2019-04-28T14:40:34.613Z,6.13
2019-04-28T14:43:03.579Z,5.53
2019-04-28T14:45:32.438Z,4.00
2019-04-28T14:48:01.361Z,4.03
2019-04-28T14:50:30.702Z,4.90
2019-04-28T14:53:00.811Z,4.40
2019-04-28T14:55:29.973Z,4.30
2019-04-28T14:57:58.939Z,4.60
2019-04-28T15:00:36.081Z,5.33
2019-04-28T15:03:08.189Z,4.30
2019-04-28T15:05:59.024Z,4.93
2019-04-28T15:08:38.602Z,4.40
2019-04-28T15:11:16.785Z,4.97
2019-04-28T15:13:45.778Z,5.20
2019-04-28T15:16:15.008Z,6.80
2019-04-28T15:18:43.941Z,4.20
2019-04-28T15:21:13.003Z,4.00
2019-04-28T15:23:41.850Z,6.23
2019-04-28T15:26:10.837Z,4.20
2019-04-28T15:28:39.754Z,4.20
2019-04-28T15:31:08.718Z,5.63
2019-04-28T15:33:37.574Z,5.90
2019-04-28T15:36:06.459Z,4.37
2019-04-28T15:38:35.483Z,5.03
2019-04-28T15:41:04.677Z,5.67
2019-04-28T15:43:34.655Z,5.77
2019-04-28T15:46:03.712Z,6.50
2019-04-28T15:48:32.634Z,8.93
2019-04-28T15:51:01.685Z,5.63
2019-04-28T15:53:30.590Z,4.80
2019-04-28T15:56:24.588Z,5.40
2019-04-28T15:58:56.513Z,6.47
2019-04-28T16:01:24.090Z,8.70
2019-04-28T16:03:53.026Z,4.90
2019-04-28T16:06:21.975Z,6.10
2019-04-28T16:08:50.838Z,4.83
2019-04-28T16:11:19.714Z,5.70
2019-04-28T16:13:48.517Z,6.13
2019-04-28T16:16:17.624Z,6.20
2019-04-28T16:18:46.538Z,6.30
2019-04-28T16:21:15.873Z,5.93
2019-04-28T16:23:44.714Z,9.37
2019-04-28T16:26:13.707Z,7.00
2019-04-28T16:28:42.557Z,6.87
2019-04-28T16:31:11.493Z,5.10
2019-04-28T16:33:40.650Z,7.10
2019-04-28T16:36:09.545Z,5.20
2019-04-28T16:38:38.445Z,7.23
2019-04-28T16:41:42.933Z,8.30
2019-04-28T16:44:41.162Z,8.30
2019-04-28T16:47:10.089Z,4.80
2019-04-28T16:49:39.080Z,8.23
2019-04-28T16:52:08.122Z,4.80
2019-04-28T16:54:47.184Z,6.30
2019-04-28T16:57:38.209Z,7.03
2019-04-28T17:00:14.019Z,6.00
2019-04-28T17:02:48.150Z,7.40
2019-04-28T17:05:17.576Z,5.83
2019-04-28T17:07:53.134Z,5.10
2019-04-28T17:10:17.218Z,5.50
2019-04-28T17:12:46.146Z,4.53
2019-04-28T17:15:15.216Z,6.43
2019-04-28T17:17:44.119Z,9.70
2019-04-28T17:20:13.332Z,5.17
2019-04-28T17:22:42.429Z,6.10
2019-04-28T17:25:11.413Z,4.83
2019-04-28T17:27:40.319Z,7.73
2019-04-28T17:30:10.274Z,8.70
2019-04-28T17:32:39.334Z,12.20
2019-04-28T17:35:08.362Z,7.07
2019-04-28T17:37:37.249Z,13.10
2019-04-28T17:40:06.728Z,10.53
2019-04-28T17:42:35.691Z,9.83
2019-04-28T17:45:05.394Z,5.80
2019-04-28T17:47:34.419Z,7.87
2019-04-28T17:50:03.506Z,11.60
2019-04-28T17:52:32.655Z,7.40
2019-04-28T17:55:01.587Z,5.10
2019-04-28T17:57:30.458Z,5.20
2019-04-28T18:00:01.547Z,4.73
2019-04-28T18:02:49.558Z,8.13
2019-04-28T18:05:38.292Z,6.40
2019-04-28T18:08:20.018Z,8.43
2019-04-28T18:10:38.396Z,5.70
2019-04-28T18:13:07.389Z,8.60
2019-04-28T18:16:04.524Z,4.73
2019-04-28T18:18:36.957Z,4.70
2019-04-28T18:21:05.870Z,7.23
2019-04-28T18:23:34.768Z,4.80
2019-04-28T18:26:03.648Z,5.67
2019-04-28T18:28:32.763Z,5.37
2019-04-28T18:31:20.805Z,5.00
2019-04-28T18:34:23.905Z,5.30
2019-04-28T18:37:14.990Z,6.70
2019-04-28T18:40:18.636Z,5.40
2019-04-28T18:42:51.158Z,5.60
2019-04-28T18:45:20.208Z,8.10
2019-04-28T18:47:49.048Z,5.17
2019-04-28T18:50:17.958Z,6.30
2019-04-28T18:52:46.983Z,5.97
2019-04-28T18:55:16.122Z,7.23
2019-04-28T18:57:45.059Z,5.90
2019-04-28T19:00:15.205Z,5.10
2019-04-28T19:02:45.871Z,5.87
2019-04-28T19:05:15.084Z,5.93
2019-04-28T19:08:13.758Z,5.67
2019-04-28T19:10:58.474Z,4.50
2019-04-28T19:13:30.066Z,5.40
2019-04-28T19:16:36.396Z,6.47
2019-04-28T19:19:07.750Z,7.13
2019-04-28T19:21:36.623Z,6.13
2019-04-28T19:24:05.634Z,5.63
2019-04-28T19:26:34.537Z,5.30
2019-04-28T19:29:03.527Z,4.93
2019-04-28T19:31:32.541Z,6.10
2019-04-28T19:34:01.493Z,5.40
2019-04-28T19:36:30.419Z,5.43
2019-04-28T19:39:03.562Z,7.13
2019-04-28T19:41:30.011Z,6.50
2019-04-28T19:43:58.897Z,7.90
2019-04-28T19:46:27.765Z,5.93
2019-04-28T19:48:56.595Z,5.43
2019-04-28T19:51:31.952Z,8.47
2019-04-28T19:53:56.707Z,4.30
2019-04-28T19:56:44.629Z,4.63
2019-04-28T19:59:18.338Z,6.63
2019-04-28T20:01:47.732Z,6.60
2019-04-28T20:04:16.782Z,5.23
2019-04-28T20:06:45.723Z,6.27
2019-04-28T20:09:14.741Z,5.17
2019-04-28T20:11:43.681Z,4.90
2019-04-28T20:14:12.775Z,6.00
2019-04-28T20:16:41.695Z,6.37
2019-04-28T20:19:10.857Z,5.57
2019-04-28T20:21:39.806Z,5.97
2019-04-28T20:24:08.645Z,5.10
2019-04-28T20:26:37.480Z,8.20
2019-04-28T20:29:06.490Z,8.70
2019-04-28T20:31:35.361Z,7.97
2019-04-28T20:34:04.269Z,6.23
2019-04-28T20:36:57.461Z,6.27
2019-04-28T20:39:30.846Z,7.70
2019-04-28T20:42:33.839Z,6.83
2019-04-28T20:45:03.434Z,5.90
2019-04-28T20:47:32.243Z,7.07
2019-04-28T20:50:01.103Z,7.50
2019-04-28T20:52:29.932Z,8.50
2019-04-28T20:54:58.802Z,8.73
2019-04-28T20:57:27.816Z,8.10
2019-04-28T20:59:56.786Z,8.60
2019-04-28T21:02:25.612Z,7.07
2019-04-28T21:04:54.470Z,7.10
2019-04-28T21:07:23.394Z,7.97
2019-04-28T21:09:52.342Z,7.83
2019-04-28T21:12:21.163Z,7.17
2019-04-28T21:14:50.148Z,7.63
2019-04-28T21:17:19.102Z,7.67
2019-04-28T21:19:47.974Z,7.40
2019-04-28T21:22:16.867Z,7.10
2019-04-28T21:24:45.788Z,7.83
2019-04-28T21:27:14.999Z,8.30
2019-04-28T21:29:43.966Z,8.07
2019-04-28T21:32:12.858Z,9.80
2019-04-28T21:34:41.686Z,7.80
2019-04-28T21:37:10.551Z,7.80
2019-04-28T21:39:39.670Z,9.60
2019-04-28T21:42:12.242Z,10.03
2019-04-28T21:44:50.870Z,10.00
2019-04-28T21:47:23.928Z,9.70
2019-04-28T21:49:52.781Z,9.63
2019-04-28T21:52:23.934Z,8.70
2019-04-28T21:54:52.817Z,8.47
2019-04-28T21:57:21.647Z,8.60
2019-04-28T21:59:50.575Z,8.17
2019-04-28T22:02:19.629Z,9.60
2019-04-28T22:04:48.551Z,9.33
2019-04-28T22:07:17.606Z,10.07
2019-04-28T22:09:46.504Z,9.00
2019-04-28T22:12:15.459Z,11.50
2019-04-28T22:14:44.362Z,7.80
2019-04-28T22:17:13.179Z,10.27
2019-04-28T22:19:42.115Z,8.47
2019-04-28T22:22:10.936Z,9.07
2019-04-28T22:24:44.793Z,8.83
2019-04-28T22:27:16.333Z,8.63
2019-04-28T22:29:45.177Z,8.00
2019-04-28T22:32:14.187Z,8.77
2019-04-28T22:34:43.117Z,9.20
2019-04-28T22:37:12.442Z,8.40
2019-04-28T22:39:41.327Z,10.87
2019-04-28T22:42:10.530Z,9.00
2019-04-28T22:44:39.435Z,10.27
2019-04-28T22:47:08.271Z,9.63
2019-04-28T22:49:37.205Z,10.30
2019-04-28T22:52:06.193Z,8.27
2019-04-28T22:55:06.605Z,11.50
2019-04-28T22:58:00.538Z,11.13
2019-04-28T23:00:51.159Z,10.00
2019-04-28T23:03:29.437Z,9.33
2019-04-28T23:05:58.447Z,9.90
2019-04-28T23:08:27.449Z,13.80
2019-04-28T23:10:56.618Z,12.53
2019-04-28T23:13:25.507Z,9.93
2019-04-28T23:15:54.450Z,11.33
2019-04-28T23:18:23.519Z,10.77
2019-04-28T23:20:56.017Z,10.77
2019-04-28T23:23:24.836Z,9.23
2019-04-28T23:25:53.821Z,9.70
2019-04-28T23:28:22.833Z,10.00
2019-04-28T23:30:51.933Z,10.67
2019-04-28T23:33:20.915Z,9.87
2019-04-28T23:35:49.877Z,12.10
2019-04-28T23:38:18.813Z,10.77
2019-04-28T23:40:57.250Z,12.17
2019-04-28T23:43:26.262Z,9.27
2019-04-28T23:45:55.221Z,10.53
2019-04-28T23:48:24.114Z,8.47
2019-04-28T23:51:03.469Z,12.37
2019-04-28T23:53:50.126Z,10.03
2019-04-28T23:56:18.963Z,9.57
2019-04-28T23:58:47.872Z,9.40
